sensor_id;sensor_type;location;lat;lon;timestamp;temperature;humidity
73572;DHT22;61854;48.510;-2.770;2024-01-30T00:01:05;11.60;99.90
73572;DHT22;61854;48.510;-2.770;2024-01-30T00:03:30;11.70;99.90
73572;DHT22;61854;48.510;-2.770;2024-01-30T00:05:56;11.50;99.90
73572;DHT22;61854;48.510;-2.770;2024-01-30T00:08:21;11.50;99.90
73572;DHT22;61854;48.510;-2.770;2024-01-30T00:10:47;11.50;99.90
73572;DHT22;61854;48.510;-2.770;2024-01-30T00:13:12;11.30;99.90
73572;DHT22;61854;48.510;-2.770;2024-01-30T00:15:39;11.20;99.90
73572;DHT22;61854;48.510;-2.770;2024-01-30T00:18:04;11.30;99.90
73572;DHT22;61854;48.510;-2.770;2024-01-30T00:20:30;11.30;99.90
73572;DHT22;61854;48.510;-2.770;2024-01-30T00:22:55;11.10;99.90
73572;DHT22;61854;48.510;-2.770;2024-01-30T00:25:21;11.20;99.90
73572;DHT22;61854;48.510;-2.770;2024-01-30T00:27:46;11.20;99.90
73572;DHT22;61854;48.510;-2.770;2024-01-30T00:30:12;11.10;99.90
73572;DHT22;61854;48.510;-2.770;2024-01-30T00:32:37;11.10;99.90
73572;DHT22;61854;48.510;-2.770;2024-01-30T00:35:03;11.20;99.90
73572;DHT22;61854;48.510;-2.770;2024-01-30T00:37:29;10.90;99.90
73572;DHT22;61854;48.510;-2.770;2024-01-30T00:39:54;10.90;99.90
73572;DHT22;61854;48.510;-2.770;2024-01-30T00:42:20;10.90;99.90
73572;DHT22;61854;48.510;-2.770;2024-01-30T00:44:46;10.90;99.90
73572;DHT22;61854;48.510;-2.770;2024-01-30T00:47:12;10.80;99.90
73572;DHT22;61854;48.510;-2.770;2024-01-30T00:49:37;10.80;99.90
73572;DHT22;61854;48.510;-2.770;2024-01-30T00:52:03;10.70;99.90
73572;DHT22;61854;48.510;-2.770;2024-01-30T00:54:28;10.90;99.90
73572;DHT22;61854;48.510;-2.770;2024-01-30T00:56:54;10.80;99.90
73572;DHT22;61854;48.510;-2.770;2024-01-30T00:59:20;10.80;99.90
73572;DHT22;61854;48.510;-2.770;2024-01-30T01:01:45;11.00;99.90
73572;DHT22;61854;48.510;-2.770;2024-01-30T01:04:10;11.00;99.90
73572;DHT22;61854;48.510;-2.770;2024-01-30T01:06:36;10.90;99.90
73572;DHT22;61854;48.510;-2.770;2024-01-30T01:09:02;10.90;99.90
73572;DHT22;61854;48.510;-2.770;2024-01-30T01:11:29;10.80;99.90
73572;DHT22;61854;48.510;-2.770;2024-01-30T01:13:54;10.70;99.90
73572;DHT22;61854;48.510;-2.770;2024-01-30T01:16:20;10.80;99.90
73572;DHT22;61854;48.510;-2.770;2024-01-30T01:18:45;10.80;99.90
73572;DHT22;61854;48.510;-2.770;2024-01-30T01:21:11;10.90;99.90
73572;DHT22;61854;48.510;-2.770;2024-01-30T01:23:36;10.90;99.90
73572;DHT22;61854;48.510;-2.770;2024-01-30T01:26:02;10.90;99.90
73572;DHT22;61854;48.510;-2.770;2024-01-30T01:28:27;10.80;99.90
73572;DHT22;61854;48.510;-2.770;2024-01-30T01:30:53;10.70;99.90
73572;DHT22;61854;48.510;-2.770;2024-01-30T01:33:24;10.70;99.90
73572;DHT22;61854;48.510;-2.770;2024-01-30T01:35:50;10.60;99.90
73572;DHT22;61854;48.510;-2.770;2024-01-30T01:38:15;10.60;99.90
73572;DHT22;61854;48.510;-2.770;2024-01-30T01:40:41;10.70;99.90
73572;DHT22;61854;48.510;-2.770;2024-01-30T01:43:06;10.70;99.90
73572;DHT22;61854;48.510;-2.770;2024-01-30T01:45:32;10.60;99.90
73572;DHT22;61854;48.510;-2.770;2024-01-30T01:47:57;10.70;99.90
73572;DHT22;61854;48.510;-2.770;2024-01-30T01:50:23;10.60;99.90
73572;DHT22;61854;48.510;-2.770;2024-01-30T01:52:49;10.70;99.90
73572;DHT22;61854;48.510;-2.770;2024-01-30T01:55:15;10.60;99.90
73572;DHT22;61854;48.510;-2.770;2024-01-30T01:57:41;10.50;99.90
73572;DHT22;61854;48.510;-2.770;2024-01-30T02:00:07;10.60;99.90
73572;DHT22;61854;48.510;-2.770;2024-01-30T02:02:35;10.60;99.90
73572;DHT22;61854;48.510;-2.770;2024-01-30T02:05:01;10.50;99.90
73572;DHT22;61854;48.510;-2.770;2024-01-30T02:07:27;10.40;99.90
73572;DHT22;61854;48.510;-2.770;2024-01-30T02:09:53;10.40;99.90
73572;DHT22;61854;48.510;-2.770;2024-01-30T02:12:19;10.50;99.90
73572;DHT22;61854;48.510;-2.770;2024-01-30T02:14:48;10.60;99.90
73572;DHT22;61854;48.510;-2.770;2024-01-30T02:17:14;10.70;99.90
73572;DHT22;61854;48.510;-2.770;2024-01-30T02:19:39;10.60;99.90
73572;DHT22;61854;48.510;-2.770;2024-01-30T02:22:05;10.60;99.90
73572;DHT22;61854;48.510;-2.770;2024-01-30T02:24:31;10.60;99.90
73572;DHT22;61854;48.510;-2.770;2024-01-30T02:26:56;10.50;99.90
73572;DHT22;61854;48.510;-2.770;2024-01-30T02:29:22;10.50;99.90
73572;DHT22;61854;48.510;-2.770;2024-01-30T02:31:47;10.60;99.90
73572;DHT22;61854;48.510;-2.770;2024-01-30T02:34:13;10.60;99.90
73572;DHT22;61854;48.510;-2.770;2024-01-30T02:36:42;10.60;99.90
73572;DHT22;61854;48.510;-2.770;2024-01-30T02:39:07;10.40;99.90
73572;DHT22;61854;48.510;-2.770;2024-01-30T02:41:33;10.50;99.90
73572;DHT22;61854;48.510;-2.770;2024-01-30T02:43:58;10.30;99.90
73572;DHT22;61854;48.510;-2.770;2024-01-30T02:46:24;10.30;99.90
73572;DHT22;61854;48.510;-2.770;2024-01-30T02:48:49;10.40;99.90
73572;DHT22;61854;48.510;-2.770;2024-01-30T02:51:15;10.40;99.90
73572;DHT22;61854;48.510;-2.770;2024-01-30T02:53:40;10.50;99.90
73572;DHT22;61854;48.510;-2.770;2024-01-30T02:56:06;10.30;99.90
73572;DHT22;61854;48.510;-2.770;2024-01-30T02:58:35;10.20;99.90
73572;DHT22;61854;48.510;-2.770;2024-01-30T03:01:01;10.30;99.90
73572;DHT22;61854;48.510;-2.770;2024-01-30T03:03:26;10.30;99.90
73572;DHT22;61854;48.510;-2.770;2024-01-30T03:05:52;10.40;99.90
73572;DHT22;61854;48.510;-2.770;2024-01-30T03:08:17;10.30;99.90
73572;DHT22;61854;48.510;-2.770;2024-01-30T03:10:43;10.20;99.90
73572;DHT22;61854;48.510;-2.770;2024-01-30T03:13:08;10.20;99.90
73572;DHT22;61854;48.510;-2.770;2024-01-30T03:15:34;10.10;99.90
73572;DHT22;61854;48.510;-2.770;2024-01-30T03:17:59;10.00;99.90
73572;DHT22;61854;48.510;-2.770;2024-01-30T03:20:25;9.90;99.90
73572;DHT22;61854;48.510;-2.770;2024-01-30T03:22:50;9.80;99.90
73572;DHT22;61854;48.510;-2.770;2024-01-30T03:25:16;9.80;99.90
73572;DHT22;61854;48.510;-2.770;2024-01-30T03:27:41;9.70;99.90
73572;DHT22;61854;48.510;-2.770;2024-01-30T03:30:07;9.70;99.90
73572;DHT22;61854;48.510;-2.770;2024-01-30T03:32:32;9.60;99.90
73572;DHT22;61854;48.510;-2.770;2024-01-30T03:34:58;9.50;99.90
73572;DHT22;61854;48.510;-2.770;2024-01-30T03:37:24;9.50;99.90
73572;DHT22;61854;48.510;-2.770;2024-01-30T03:39:50;9.50;99.90
73572;DHT22;61854;48.510;-2.770;2024-01-30T03:42:15;9.40;99.90
73572;DHT22;61854;48.510;-2.770;2024-01-30T03:44:41;9.40;99.90
73572;DHT22;61854;48.510;-2.770;2024-01-30T03:47:06;9.40;99.90
73572;DHT22;61854;48.510;-2.770;2024-01-30T03:49:32;9.30;99.90
73572;DHT22;61854;48.510;-2.770;2024-01-30T03:51:57;9.20;99.90
73572;DHT22;61854;48.510;-2.770;2024-01-30T03:54:23;9.10;99.90
73572;DHT22;61854;48.510;-2.770;2024-01-30T03:56:48;9.10;99.90
73572;DHT22;61854;48.510;-2.770;2024-01-30T03:59:14;9.10;99.90
73572;DHT22;61854;48.510;-2.770;2024-01-30T04:01:39;9.00;99.90
73572;DHT22;61854;48.510;-2.770;2024-01-30T04:04:05;9.10;99.90
73572;DHT22;61854;48.510;-2.770;2024-01-30T04:06:30;9.00;99.90
73572;DHT22;61854;48.510;-2.770;2024-01-30T04:08:56;9.10;99.90
73572;DHT22;61854;48.510;-2.770;2024-01-30T04:11:21;9.10;99.90
73572;DHT22;61854;48.510;-2.770;2024-01-30T04:13:47;9.20;99.90
73572;DHT22;61854;48.510;-2.770;2024-01-30T04:16:22;9.30;99.90
73572;DHT22;61854;48.510;-2.770;2024-01-30T04:18:48;9.40;99.90
73572;DHT22;61854;48.510;-2.770;2024-01-30T04:21:13;9.40;99.90
73572;DHT22;61854;48.510;-2.770;2024-01-30T04:23:39;9.40;99.90
73572;DHT22;61854;48.510;-2.770;2024-01-30T04:26:05;9.50;99.90
73572;DHT22;61854;48.510;-2.770;2024-01-30T04:28:30;9.50;99.90
73572;DHT22;61854;48.510;-2.770;2024-01-30T04:30:56;9.50;99.90
73572;DHT22;61854;48.510;-2.770;2024-01-30T04:33:21;9.50;99.90
73572;DHT22;61854;48.510;-2.770;2024-01-30T04:35:47;9.40;99.90
73572;DHT22;61854;48.510;-2.770;2024-01-30T04:38:12;9.40;99.90
73572;DHT22;61854;48.510;-2.770;2024-01-30T04:40:40;9.40;99.90
73572;DHT22;61854;48.510;-2.770;2024-01-30T04:43:05;9.40;99.90
73572;DHT22;61854;48.510;-2.770;2024-01-30T04:45:31;9.40;99.90
73572;DHT22;61854;48.510;-2.770;2024-01-30T04:47:56;9.40;99.90
73572;DHT22;61854;48.510;-2.770;2024-01-30T04:50:22;9.40;99.90
73572;DHT22;61854;48.510;-2.770;2024-01-30T04:52:48;9.30;99.90
73572;DHT22;61854;48.510;-2.770;2024-01-30T04:55:14;9.30;99.90
73572;DHT22;61854;48.510;-2.770;2024-01-30T04:57:39;9.30;99.90
73572;DHT22;61854;48.510;-2.770;2024-01-30T05:00:05;9.30;99.90
73572;DHT22;61854;48.510;-2.770;2024-01-30T05:02:30;9.30;99.90
73572;DHT22;61854;48.510;-2.770;2024-01-30T05:04:56;9.30;99.90
73572;DHT22;61854;48.510;-2.770;2024-01-30T05:07:22;9.30;99.90
73572;DHT22;61854;48.510;-2.770;2024-01-30T05:09:48;9.30;99.90
73572;DHT22;61854;48.510;-2.770;2024-01-30T05:12:13;9.30;99.90
73572;DHT22;61854;48.510;-2.770;2024-01-30T05:14:39;9.40;99.90
73572;DHT22;61854;48.510;-2.770;2024-01-30T05:17:04;9.40;99.90
73572;DHT22;61854;48.510;-2.770;2024-01-30T05:19:30;9.40;99.90
73572;DHT22;61854;48.510;-2.770;2024-01-30T05:21:55;9.30;99.90
73572;DHT22;61854;48.510;-2.770;2024-01-30T05:24:21;9.20;99.90
73572;DHT22;61854;48.510;-2.770;2024-01-30T05:26:46;9.20;99.90
73572;DHT22;61854;48.510;-2.770;2024-01-30T05:29:13;9.20;99.90
73572;DHT22;61854;48.510;-2.770;2024-01-30T05:31:38;9.20;99.90
73572;DHT22;61854;48.510;-2.770;2024-01-30T05:34:04;9.20;99.90
73572;DHT22;61854;48.510;-2.770;2024-01-30T05:36:29;9.10;99.90
73572;DHT22;61854;48.510;-2.770;2024-01-30T05:38:55;9.00;99.90
73572;DHT22;61854;48.510;-2.770;2024-01-30T05:41:21;9.00;99.90
73572;DHT22;61854;48.510;-2.770;2024-01-30T05:43:47;8.90;99.90
73572;DHT22;61854;48.510;-2.770;2024-01-30T05:46:13;8.80;99.90
73572;DHT22;61854;48.510;-2.770;2024-01-30T05:48:38;8.70;99.90
73572;DHT22;61854;48.510;-2.770;2024-01-30T05:51:04;8.70;99.90
73572;DHT22;61854;48.510;-2.770;2024-01-30T05:53:29;8.70;99.90
73572;DHT22;61854;48.510;-2.770;2024-01-30T05:55:55;8.70;99.90
73572;DHT22;61854;48.510;-2.770;2024-01-30T05:58:20;8.60;99.90
73572;DHT22;61854;48.510;-2.770;2024-01-30T06:00:46;8.60;99.90
73572;DHT22;61854;48.510;-2.770;2024-01-30T06:03:12;8.50;99.90
73572;DHT22;61854;48.510;-2.770;2024-01-30T06:05:38;8.50;99.90
73572;DHT22;61854;48.510;-2.770;2024-01-30T06:08:03;8.50;99.90
73572;DHT22;61854;48.510;-2.770;2024-01-30T06:10:29;8.50;99.90
73572;DHT22;61854;48.510;-2.770;2024-01-30T06:12:54;8.40;99.90
73572;DHT22;61854;48.510;-2.770;2024-01-30T06:15:20;8.50;99.90
73572;DHT22;61854;48.510;-2.770;2024-01-30T06:17:46;8.40;99.90
73572;DHT22;61854;48.510;-2.770;2024-01-30T06:20:11;8.40;99.90
73572;DHT22;61854;48.510;-2.770;2024-01-30T06:22:37;8.40;99.90
73572;DHT22;61854;48.510;-2.770;2024-01-30T06:25:02;8.30;99.90
73572;DHT22;61854;48.510;-2.770;2024-01-30T06:27:28;8.30;99.90
73572;DHT22;61854;48.510;-2.770;2024-01-30T06:29:53;8.30;99.90
73572;DHT22;61854;48.510;-2.770;2024-01-30T06:32:19;8.30;99.90
73572;DHT22;61854;48.510;-2.770;2024-01-30T06:34:44;8.30;99.90
73572;DHT22;61854;48.510;-2.770;2024-01-30T06:37:10;8.30;99.90
73572;DHT22;61854;48.510;-2.770;2024-01-30T06:39:35;8.30;99.90
73572;DHT22;61854;48.510;-2.770;2024-01-30T06:42:01;8.30;99.90
73572;DHT22;61854;48.510;-2.770;2024-01-30T06:44:26;8.30;99.90
73572;DHT22;61854;48.510;-2.770;2024-01-30T06:46:52;8.20;99.90
73572;DHT22;61854;48.510;-2.770;2024-01-30T06:49:17;8.20;99.90
73572;DHT22;61854;48.510;-2.770;2024-01-30T06:51:43;8.20;99.90
73572;DHT22;61854;48.510;-2.770;2024-01-30T06:54:08;8.20;99.90
73572;DHT22;61854;48.510;-2.770;2024-01-30T06:56:34;8.20;99.90
73572;DHT22;61854;48.510;-2.770;2024-01-30T06:58:59;8.20;99.90
73572;DHT22;61854;48.510;-2.770;2024-01-30T07:01:28;8.30;99.90
73572;DHT22;61854;48.510;-2.770;2024-01-30T07:03:54;8.20;99.90
73572;DHT22;61854;48.510;-2.770;2024-01-30T07:06:20;8.20;99.90
73572;DHT22;61854;48.510;-2.770;2024-01-30T07:08:45;8.10;99.90
73572;DHT22;61854;48.510;-2.770;2024-01-30T07:11:17;8.00;99.90
73572;DHT22;61854;48.510;-2.770;2024-01-30T07:13:44;8.10;99.90
73572;DHT22;61854;48.510;-2.770;2024-01-30T07:16:10;8.10;99.90
73572;DHT22;61854;48.510;-2.770;2024-01-30T07:18:35;8.10;99.90
73572;DHT22;61854;48.510;-2.770;2024-01-30T07:21:01;8.00;99.90
73572;DHT22;61854;48.510;-2.770;2024-01-30T07:23:26;8.00;99.90
73572;DHT22;61854;48.510;-2.770;2024-01-30T07:25:51;8.00;99.90
73572;DHT22;61854;48.510;-2.770;2024-01-30T07:28:17;7.90;99.90
73572;DHT22;61854;48.510;-2.770;2024-01-30T07:30:43;8.00;99.90
73572;DHT22;61854;48.510;-2.770;2024-01-30T07:33:08;8.00;99.90
73572;DHT22;61854;48.510;-2.770;2024-01-30T07:35:34;8.00;99.90
73572;DHT22;61854;48.510;-2.770;2024-01-30T07:38:00;8.10;99.90
73572;DHT22;61854;48.510;-2.770;2024-01-30T07:40:25;8.10;99.90
73572;DHT22;61854;48.510;-2.770;2024-01-30T07:42:53;8.20;99.90
73572;DHT22;61854;48.510;-2.770;2024-01-30T07:45:19;8.20;99.90
73572;DHT22;61854;48.510;-2.770;2024-01-30T07:47:48;8.30;99.90
73572;DHT22;61854;48.510;-2.770;2024-01-30T07:50:14;8.40;99.90
73572;DHT22;61854;48.510;-2.770;2024-01-30T07:52:39;8.40;99.90
73572;DHT22;61854;48.510;-2.770;2024-01-30T07:55:05;8.50;99.90
73572;DHT22;61854;48.510;-2.770;2024-01-30T07:57:33;8.60;99.90
73572;DHT22;61854;48.510;-2.770;2024-01-30T07:59:59;8.60;99.90
73572;DHT22;61854;48.510;-2.770;2024-01-30T08:02:25;8.70;99.90
73572;DHT22;61854;48.510;-2.770;2024-01-30T08:04:50;8.70;99.90
73572;DHT22;61854;48.510;-2.770;2024-01-30T08:07:16;8.80;99.90
73572;DHT22;61854;48.510;-2.770;2024-01-30T08:09:43;8.90;99.90
73572;DHT22;61854;48.510;-2.770;2024-01-30T08:12:08;8.90;99.90
73572;DHT22;61854;48.510;-2.770;2024-01-30T08:14:34;8.90;99.90
73572;DHT22;61854;48.510;-2.770;2024-01-30T08:16:59;8.80;99.90
73572;DHT22;61854;48.510;-2.770;2024-01-30T08:19:25;8.80;99.90
73572;DHT22;61854;48.510;-2.770;2024-01-30T08:21:50;8.70;99.90
73572;DHT22;61854;48.510;-2.770;2024-01-30T08:24:16;8.70;99.90
73572;DHT22;61854;48.510;-2.770;2024-01-30T08:26:41;8.80;99.90
73572;DHT22;61854;48.510;-2.770;2024-01-30T08:29:07;8.80;99.90
73572;DHT22;61854;48.510;-2.770;2024-01-30T08:31:33;8.70;99.90
73572;DHT22;61854;48.510;-2.770;2024-01-30T08:33:58;8.70;99.90
73572;DHT22;61854;48.510;-2.770;2024-01-30T08:36:24;8.70;99.90
73572;DHT22;61854;48.510;-2.770;2024-01-30T08:38:50;8.80;99.90
73572;DHT22;61854;48.510;-2.770;2024-01-30T08:41:15;8.90;99.90
73572;DHT22;61854;48.510;-2.770;2024-01-30T08:43:41;9.00;99.90
73572;DHT22;61854;48.510;-2.770;2024-01-30T08:46:06;9.00;99.90
73572;DHT22;61854;48.510;-2.770;2024-01-30T08:48:32;9.10;99.90
73572;DHT22;61854;48.510;-2.770;2024-01-30T08:50:57;9.10;99.90
73572;DHT22;61854;48.510;-2.770;2024-01-30T08:53:23;9.10;99.90
73572;DHT22;61854;48.510;-2.770;2024-01-30T08:55:48;9.10;99.90
73572;DHT22;61854;48.510;-2.770;2024-01-30T08:58:14;9.20;99.90
73572;DHT22;61854;48.510;-2.770;2024-01-30T09:00:40;9.20;99.90
73572;DHT22;61854;48.510;-2.770;2024-01-30T09:03:06;9.30;99.90
73572;DHT22;61854;48.510;-2.770;2024-01-30T09:05:31;9.40;99.90
73572;DHT22;61854;48.510;-2.770;2024-01-30T09:07:57;9.30;99.90
73572;DHT22;61854;48.510;-2.770;2024-01-30T09:10:22;9.30;99.90
73572;DHT22;61854;48.510;-2.770;2024-01-30T09:12:48;9.30;99.90
73572;DHT22;61854;48.510;-2.770;2024-01-30T09:15:14;9.40;99.90
73572;DHT22;61854;48.510;-2.770;2024-01-30T09:17:40;9.40;99.90
73572;DHT22;61854;48.510;-2.770;2024-01-30T09:20:06;9.50;99.90
73572;DHT22;61854;48.510;-2.770;2024-01-30T09:22:31;9.50;99.90
73572;DHT22;61854;48.510;-2.770;2024-01-30T09:24:57;9.60;99.90
73572;DHT22;61854;48.510;-2.770;2024-01-30T09:27:23;9.80;99.90
73572;DHT22;61854;48.510;-2.770;2024-01-30T09:29:49;9.80;99.90
73572;DHT22;61854;48.510;-2.770;2024-01-30T09:32:14;9.80;99.90
73572;DHT22;61854;48.510;-2.770;2024-01-30T09:34:40;9.90;99.90
73572;DHT22;61854;48.510;-2.770;2024-01-30T09:37:07;10.00;99.90
73572;DHT22;61854;48.510;-2.770;2024-01-30T09:39:32;9.90;99.90
73572;DHT22;61854;48.510;-2.770;2024-01-30T09:44:43;10.00;99.90
73572;DHT22;61854;48.510;-2.770;2024-01-30T09:47:08;10.00;99.90
73572;DHT22;61854;48.510;-2.770;2024-01-30T09:49:35;10.10;99.90
73572;DHT22;61854;48.510;-2.770;2024-01-30T09:52:01;10.10;99.90
73572;DHT22;61854;48.510;-2.770;2024-01-30T09:54:29;10.20;99.90
73572;DHT22;61854;48.510;-2.770;2024-01-30T09:56:55;10.20;99.90
73572;DHT22;61854;48.510;-2.770;2024-01-30T09:59:21;10.30;99.90
73572;DHT22;61854;48.510;-2.770;2024-01-30T10:01:46;10.30;99.90
73572;DHT22;61854;48.510;-2.770;2024-01-30T10:04:12;10.40;99.90
73572;DHT22;61854;48.510;-2.770;2024-01-30T10:06:37;10.40;99.90
73572;DHT22;61854;48.510;-2.770;2024-01-30T10:09:03;10.40;99.90
73572;DHT22;61854;48.510;-2.770;2024-01-30T10:11:29;10.50;99.90
73572;DHT22;61854;48.510;-2.770;2024-01-30T10:13:55;10.60;99.90
73572;DHT22;61854;48.510;-2.770;2024-01-30T10:16:21;10.50;99.90
73572;DHT22;61854;48.510;-2.770;2024-01-30T10:18:46;10.50;99.90
73572;DHT22;61854;48.510;-2.770;2024-01-30T10:21:12;10.70;99.90
73572;DHT22;61854;48.510;-2.770;2024-01-30T10:23:38;10.80;99.90
73572;DHT22;61854;48.510;-2.770;2024-01-30T10:26:04;10.80;99.90
73572;DHT22;61854;48.510;-2.770;2024-01-30T10:28:29;10.70;99.90
73572;DHT22;61854;48.510;-2.770;2024-01-30T10:31:02;10.70;99.90
73572;DHT22;61854;48.510;-2.770;2024-01-30T10:33:31;10.70;99.90
73572;DHT22;61854;48.510;-2.770;2024-01-30T10:35:58;10.50;99.90
73572;DHT22;61854;48.510;-2.770;2024-01-30T10:38:25;10.50;99.90
73572;DHT22;61854;48.510;-2.770;2024-01-30T10:40:53;10.50;99.90
73572;DHT22;61854;48.510;-2.770;2024-01-30T10:43:21;10.80;99.90
73572;DHT22;61854;48.510;-2.770;2024-01-30T10:45:47;10.80;99.90
73572;DHT22;61854;48.510;-2.770;2024-01-30T10:48:14;10.80;99.90
73572;DHT22;61854;48.510;-2.770;2024-01-30T10:50:43;10.80;99.90
73572;DHT22;61854;48.510;-2.770;2024-01-30T10:53:08;10.80;99.90
73572;DHT22;61854;48.510;-2.770;2024-01-30T10:55:35;10.80;99.90
73572;DHT22;61854;48.510;-2.770;2024-01-30T10:58:01;10.80;99.90
73572;DHT22;61854;48.510;-2.770;2024-01-30T11:00:27;10.90;99.90
73572;DHT22;61854;48.510;-2.770;2024-01-30T11:02:53;10.90;99.90
73572;DHT22;61854;48.510;-2.770;2024-01-30T11:05:25;11.10;99.90
73572;DHT22;61854;48.510;-2.770;2024-01-30T11:07:54;11.30;99.90
73572;DHT22;61854;48.510;-2.770;2024-01-30T11:10:20;11.30;99.90
73572;DHT22;61854;48.510;-2.770;2024-01-30T11:12:45;11.10;99.90
73572;DHT22;61854;48.510;-2.770;2024-01-30T11:15:15;11.20;99.90
73572;DHT22;61854;48.510;-2.770;2024-01-30T11:17:44;11.20;99.90
73572;DHT22;61854;48.510;-2.770;2024-01-30T11:20:27;11.10;99.90
73572;DHT22;61854;48.510;-2.770;2024-01-30T11:22:53;11.20;99.90
73572;DHT22;61854;48.510;-2.770;2024-01-30T11:25:20;11.00;99.90
73572;DHT22;61854;48.510;-2.770;2024-01-30T11:27:46;10.90;99.90
73572;DHT22;61854;48.510;-2.770;2024-01-30T11:33:09;10.70;96.10
73572;DHT22;61854;48.510;-2.770;2024-01-30T11:38:00;10.90;98.00
73572;DHT22;61854;48.510;-2.770;2024-01-30T11:40:29;10.90;98.30
73572;DHT22;61854;48.510;-2.770;2024-01-30T11:42:56;10.80;98.90
73572;DHT22;61854;48.510;-2.770;2024-01-30T11:45:21;10.80;99.90
73572;DHT22;61854;48.510;-2.770;2024-01-30T11:47:47;11.00;99.00
73572;DHT22;61854;48.510;-2.770;2024-01-30T11:50:13;11.00;97.50
73572;DHT22;61854;48.510;-2.770;2024-01-30T11:52:39;10.90;98.90
73572;DHT22;61854;48.510;-2.770;2024-01-30T11:55:05;10.80;96.30
73572;DHT22;61854;48.510;-2.770;2024-01-30T11:57:30;10.70;96.20
73572;DHT22;61854;48.510;-2.770;2024-01-30T11:59:56;10.90;97.10
73572;DHT22;61854;48.510;-2.770;2024-01-30T12:02:21;10.80;92.70
73572;DHT22;61854;48.510;-2.770;2024-01-30T12:04:47;10.80;92.00
73572;DHT22;61854;48.510;-2.770;2024-01-30T12:07:13;10.80;92.20
73572;DHT22;61854;48.510;-2.770;2024-01-30T12:09:41;10.80;91.20
73572;DHT22;61854;48.510;-2.770;2024-01-30T12:12:07;10.90;90.40
73572;DHT22;61854;48.510;-2.770;2024-01-30T12:14:39;11.00;92.30
73572;DHT22;61854;48.510;-2.770;2024-01-30T12:17:05;10.80;91.90
73572;DHT22;61854;48.510;-2.770;2024-01-30T12:19:32;10.90;92.20
73572;DHT22;61854;48.510;-2.770;2024-01-30T12:21:58;11.00;92.80
73572;DHT22;61854;48.510;-2.770;2024-01-30T12:24:27;11.10;90.40
73572;DHT22;61854;48.510;-2.770;2024-01-30T12:26:56;11.00;89.20
73572;DHT22;61854;48.510;-2.770;2024-01-30T12:29:22;11.00;90.40
73572;DHT22;61854;48.510;-2.770;2024-01-30T12:31:47;11.00;87.90
73572;DHT22;61854;48.510;-2.770;2024-01-30T12:34:15;11.00;90.90
73572;DHT22;61854;48.510;-2.770;2024-01-30T12:36:42;11.20;87.70
73572;DHT22;61854;48.510;-2.770;2024-01-30T12:39:10;10.90;87.20
73572;DHT22;61854;48.510;-2.770;2024-01-30T12:41:36;11.20;90.10
73572;DHT22;61854;48.510;-2.770;2024-01-30T12:44:01;11.20;82.70
73572;DHT22;61854;48.510;-2.770;2024-01-30T12:46:27;11.10;83.80
73572;DHT22;61854;48.510;-2.770;2024-01-30T12:48:53;11.10;82.00
73572;DHT22;61854;48.510;-2.770;2024-01-30T12:51:19;11.20;80.10
73572;DHT22;61854;48.510;-2.770;2024-01-30T12:53:44;11.20;83.80
73572;DHT22;61854;48.510;-2.770;2024-01-30T12:56:12;11.10;81.80
73572;DHT22;61854;48.510;-2.770;2024-01-30T12:58:37;11.00;80.50
73572;DHT22;61854;48.510;-2.770;2024-01-30T13:01:03;11.00;81.20
73572;DHT22;61854;48.510;-2.770;2024-01-30T13:03:28;11.00;80.00
73572;DHT22;61854;48.510;-2.770;2024-01-30T13:05:54;11.20;80.80
73572;DHT22;61854;48.510;-2.770;2024-01-30T13:08:21;11.30;86.90
73572;DHT22;61854;48.510;-2.770;2024-01-30T13:10:47;11.50;82.70
73572;DHT22;61854;48.510;-2.770;2024-01-30T13:13:12;11.50;82.10
73572;DHT22;61854;48.510;-2.770;2024-01-30T13:15:38;11.20;79.10
73572;DHT22;61854;48.510;-2.770;2024-01-30T13:18:03;11.10;84.70
73572;DHT22;61854;48.510;-2.770;2024-01-30T13:20:30;11.20;88.40
73572;DHT22;61854;48.510;-2.770;2024-01-30T13:22:56;11.30;83.30
73572;DHT22;61854;48.510;-2.770;2024-01-30T13:25:21;11.20;79.20
73572;DHT22;61854;48.510;-2.770;2024-01-30T13:27:46;11.30;83.00
73572;DHT22;61854;48.510;-2.770;2024-01-30T13:30:12;11.50;82.40
73572;DHT22;61854;48.510;-2.770;2024-01-30T13:32:38;11.20;84.00
73572;DHT22;61854;48.510;-2.770;2024-01-30T13:35:03;11.30;83.00
73572;DHT22;61854;48.510;-2.770;2024-01-30T13:37:29;11.30;87.50
73572;DHT22;61854;48.510;-2.770;2024-01-30T13:39:55;11.30;84.00
73572;DHT22;61854;48.510;-2.770;2024-01-30T13:42:21;11.10;86.90
73572;DHT22;61854;48.510;-2.770;2024-01-30T13:44:47;11.10;89.20
73572;DHT22;61854;48.510;-2.770;2024-01-30T13:47:12;11.20;88.50
73572;DHT22;61854;48.510;-2.770;2024-01-30T13:49:38;11.30;84.70
73572;DHT22;61854;48.510;-2.770;2024-01-30T13:52:03;11.30;83.00
73572;DHT22;61854;48.510;-2.770;2024-01-30T13:54:29;11.10;85.20
73572;DHT22;61854;48.510;-2.770;2024-01-30T13:56:56;11.20;83.60
73572;DHT22;61854;48.510;-2.770;2024-01-30T13:59:21;11.20;83.10
73572;DHT22;61854;48.510;-2.770;2024-01-30T14:01:49;11.10;85.30
73572;DHT22;61854;48.510;-2.770;2024-01-30T14:04:15;11.20;84.40
73572;DHT22;61854;48.510;-2.770;2024-01-30T14:06:40;11.10;82.70
73572;DHT22;61854;48.510;-2.770;2024-01-30T14:09:06;11.00;84.80
73572;DHT22;61854;48.510;-2.770;2024-01-30T14:11:31;11.00;86.10
73572;DHT22;61854;48.510;-2.770;2024-01-30T14:13:57;10.90;87.10
73572;DHT22;61854;48.510;-2.770;2024-01-30T14:16:23;10.90;88.10
73572;DHT22;61854;48.510;-2.770;2024-01-30T14:18:49;11.00;86.40
73572;DHT22;61854;48.510;-2.770;2024-01-30T14:21:15;10.90;89.60
73572;DHT22;61854;48.510;-2.770;2024-01-30T14:23:40;10.90;90.30
73572;DHT22;61854;48.510;-2.770;2024-01-30T14:26:06;10.70;92.70
73572;DHT22;61854;48.510;-2.770;2024-01-30T14:28:31;10.50;97.60
73572;DHT22;61854;48.510;-2.770;2024-01-30T14:30:57;10.50;99.50
73572;DHT22;61854;48.510;-2.770;2024-01-30T14:33:22;10.40;99.90
73572;DHT22;61854;48.510;-2.770;2024-01-30T14:35:48;10.30;99.90
73572;DHT22;61854;48.510;-2.770;2024-01-30T14:38:13;10.20;99.90
73572;DHT22;61854;48.510;-2.770;2024-01-30T14:40:39;10.10;99.90
73572;DHT22;61854;48.510;-2.770;2024-01-30T14:43:05;10.10;99.90
73572;DHT22;61854;48.510;-2.770;2024-01-30T14:45:30;10.10;99.90
73572;DHT22;61854;48.510;-2.770;2024-01-30T14:47:57;10.00;99.90
73572;DHT22;61854;48.510;-2.770;2024-01-30T14:50:23;10.00;99.90
73572;DHT22;61854;48.510;-2.770;2024-01-30T14:52:48;10.00;99.90
73572;DHT22;61854;48.510;-2.770;2024-01-30T14:55:14;10.00;99.90
73572;DHT22;61854;48.510;-2.770;2024-01-30T14:57:39;10.00;99.90
73572;DHT22;61854;48.510;-2.770;2024-01-30T15:00:07;10.00;99.90
73572;DHT22;61854;48.510;-2.770;2024-01-30T15:02:34;10.00;99.90
73572;DHT22;61854;48.510;-2.770;2024-01-30T15:05:00;10.00;99.90
73572;DHT22;61854;48.510;-2.770;2024-01-30T15:07:26;9.90;99.90
73572;DHT22;61854;48.510;-2.770;2024-01-30T15:09:53;10.00;99.90
73572;DHT22;61854;48.510;-2.770;2024-01-30T15:12:18;10.00;99.90
73572;DHT22;61854;48.510;-2.770;2024-01-30T15:14:44;9.90;99.90
73572;DHT22;61854;48.510;-2.770;2024-01-30T15:17:18;9.90;99.90
73572;DHT22;61854;48.510;-2.770;2024-01-30T15:19:44;9.90;99.90
73572;DHT22;61854;48.510;-2.770;2024-01-30T15:22:09;9.90;99.90